Time;durP1;ratioP1;P1;durP2;ratioP2;P2;SDS_P1;SDS_P2;PMS_P1;PMS_P2;Temp;Humidity;BMP_temperature;BMP_pressure;BME280_temperature;BME280_humidity;BME280_pressure;Samples;Min_cycle;Max_cycle;Signal;HPM_P1;HPM_P2
2022/03/14 00:01:24;;;;;;;17.35;10.40;;;7.50;38.30;;;;;;5033675;28;20338;-65
2022/03/14 00:03:53;;;;;;;19.20;10.73;;;7.50;38.20;;;;;;5021328;28;20089;-65
2022/03/14 00:06:19;;;;;;;18.85;10.93;;;7.50;38.30;;;;;;5033027;28;20142;-65
2022/03/14 00:08:45;;;;;;;17.40;9.82;;;7.40;38.40;;;;;;5031940;28;20070;-64
2022/03/14 00:11:14;;;;;;;18.80;10.23;;;7.40;38.50;;;;;;5033518;28;20156;-65
2022/03/14 00:13:40;;;;;;;18.48;10.75;;;7.40;38.60;;;;;;5025117;28;20630;-64
2022/03/14 00:16:08;;;;;;;19.80;11.30;;;7.30;38.70;;;;;;5012435;28;20470;-64
2022/03/14 00:18:34;;;;;;;19.13;11.18;;;7.30;38.80;;;;;;5024116;28;20503;-64
2022/03/14 00:21:00;;;;;;;18.83;10.60;;;7.20;38.70;;;;;;5032880;28;20021;-64
2022/03/14 00:23:27;;;;;;;19.90;10.80;;;7.20;38.90;;;;;;5031517;28;20413;-64
2022/03/14 00:25:54;;;;;;;21.38;12.15;;;7.20;38.90;;;;;;5033056;28;20063;-64
2022/03/14 00:28:20;;;;;;;18.02;11.48;;;7.10;39.30;;;;;;5023141;28;20382;-64
2022/03/14 00:30:45;;;;;;;20.60;11.90;;;7.20;39.30;;;;;;5013361;28;20076;-64
2022/03/14 00:33:11;;;;;;;19.73;10.82;;;7.10;39.30;;;;;;5019179;28;20029;-64
2022/03/14 00:35:36;;;;;;;20.45;11.05;;;7.00;39.40;;;;;;5032867;28;20033;-64
2022/03/14 00:38:02;;;;;;;24.92;11.63;;;7.00;39.40;;;;;;5031595;28;20445;-64
2022/03/14 00:40:28;;;;;;;22.77;12.18;;;7.00;39.40;;;;;;5032230;28;20029;-64
2022/03/14 00:42:53;;;;;;;22.58;11.40;;;7.00;39.50;;;;;;5031041;28;20543;-64
2022/03/14 00:45:21;;;;;;;20.02;11.70;;;6.90;39.80;;;;;;5033115;28;20118;-65
2022/03/14 00:47:46;;;;;;;19.38;11.43;;;6.90;39.60;;;;;;5031190;28;20037;-64
2022/03/14 00:50:12;;;;;;;21.95;11.18;;;6.90;39.90;;;;;;5032634;28;20123;-64
2022/03/14 00:52:37;;;;;;;19.45;11.18;;;6.80;40.00;;;;;;5032177;28;20061;-64
2022/03/14 00:55:03;;;;;;;22.80;11.10;;;6.80;40.00;;;;;;5032965;28;20026;-65
2022/03/14 00:57:29;;;;;;;21.70;11.65;;;6.80;40.00;;;;;;5031722;28;20045;-65
2022/03/14 00:59:55;;;;;;;20.58;11.68;;;6.80;39.90;;;;;;5032465;28;20454;-64
2022/03/14 01:02:20;;;;;;;20.52;12.50;;;6.80;39.90;;;;;;5030201;28;20072;-64
2022/03/14 01:04:46;;;;;;;21.52;11.27;;;6.80;40.00;;;;;;5032070;28;20408;-64
2022/03/14 01:07:11;;;;;;;20.42;11.07;;;6.80;40.20;;;;;;5031565;28;20043;-64
2022/03/14 01:09:37;;;;;;;20.98;12.10;;;6.70;40.20;;;;;;5032234;28;20041;-64
2022/03/14 01:12:03;;;;;;;24.48;11.80;;;6.70;40.40;;;;;;5031851;28;20034;-64
2022/03/14 01:14:28;;;;;;;20.30;11.77;;;6.60;40.50;;;;;;5023551;28;20472;-64
2022/03/14 01:16:54;;;;;;;24.15;11.48;;;6.60;40.50;;;;;;5035318;28;20025;-64
2022/03/14 01:19:20;;;;;;;23.63;11.65;;;6.60;40.60;;;;;;5031327;28;20091;-65
2022/03/14 01:21:47;;;;;;;20.27;11.35;;;6.60;40.50;;;;;;5031850;28;20029;-64
2022/03/14 01:24:12;;;;;;;21.73;11.50;;;6.60;40.60;;;;;;5031240;28;20037;-65
2022/03/14 01:26:37;;;;;;;21.38;13.70;;;6.60;40.60;;;;;;5032164;28;20381;-64
2022/03/14 01:29:05;;;;;;;21.33;11.27;;;6.60;40.70;;;;;;5030501;28;20397;-65
2022/03/14 01:31:31;;;;;;;22.13;12.27;;;6.60;40.70;;;;;;5031609;28;20026;-64
2022/03/14 01:33:57;;;;;;;26.38;12.95;;;6.50;40.70;;;;;;5022394;28;20335;-64
2022/03/14 01:36:23;;;;;;;22.90;12.35;;;6.50;40.80;;;;;;5012336;28;20422;-64
2022/03/14 01:38:48;;;;;;;23.00;12.98;;;6.50;40.80;;;;;;5024322;28;20044;-64
2022/03/14 01:41:18;;;;;;;25.00;12.43;;;6.50;40.80;;;;;;5031750;28;20033;-64
2022/03/14 01:43:45;;;;;;;23.40;12.50;;;6.40;41.10;;;;;;5030525;28;20033;-64
2022/03/14 01:46:12;;;;;;;21.20;11.23;;;6.40;41.10;;;;;;5030725;28;20030;-65
2022/03/14 01:48:38;;;;;;;21.10;11.82;;;6.40;41.10;;;;;;5030501;28;20388;-65
2022/03/14 01:51:04;;;;;;;22.25;12.10;;;6.40;41.00;;;;;;5030456;28;20099;-64
2022/03/14 01:53:30;;;;;;;21.52;12.73;;;6.40;41.00;;;;;;5029689;28;20048;-65
2022/03/14 01:55:56;;;;;;;23.88;12.55;;;6.30;41.10;;;;;;5031216;28;20026;-65
2022/03/14 01:58:22;;;;;;;22.13;11.70;;;6.30;41.30;;;;;;5030382;28;20030;-65
2022/03/14 02:00:48;;;;;;;22.20;11.88;;;6.20;41.60;;;;;;5031254;28;20025;-65
2022/03/14 02:03:13;;;;;;;18.92;12.23;;;6.20;41.40;;;;;;5029885;28;20821;-64
2022/03/14 02:05:40;;;;;;;22.95;13.13;;;6.20;41.30;;;;;;5031344;28;20033;-65
2022/03/14 02:08:06;;;;;;;20.63;11.77;;;6.20;41.50;;;;;;5031264;28;20048;-65
2022/03/14 02:10:34;;;;;;;23.05;12.50;;;6.20;41.70;;;;;;5031161;28;20559;-65
2022/03/14 02:13:04;;;;;;;18.65;11.00;;;6.20;41.50;;;;;;5028980;28;20041;-66
2022/03/14 02:15:30;;;;;;;20.23;11.85;;;6.10;41.60;;;;;;5030850;28;20064;-64
2022/03/14 02:17:55;;;;;;;21.55;12.77;;;6.10;41.50;;;;;;5029287;28;20068;-65
2022/03/14 02:20:21;;;;;;;26.67;12.52;;;6.10;41.80;;;;;;5030117;28;20026;-64
2022/03/14 02:22:46;;;;;;;22.55;12.27;;;6.10;41.80;;;;;;5029630;28;20048;-65
2022/03/14 02:25:12;;;;;;;21.38;12.45;;;6.00;41.70;;;;;;5029950;28;20067;-65
2022/03/14 02:27:38;;;;;;;22.02;12.48;;;6.00;42.30;;;;;;5029071;28;20049;-64
2022/03/14 02:30:05;;;;;;;21.35;12.93;;;6.00;41.90;;;;;;5030660;28;20028;-64
2022/03/14 02:32:30;;;;;;;24.83;13.23;;;6.00;42.00;;;;;;5028650;28;20034;-65
2022/03/14 02:34:55;;;;;;;24.90;12.90;;;6.00;41.90;;;;;;5027541;28;20382;-65
2022/03/14 02:37:21;;;;;;;20.90;12.77;;;5.90;42.20;;;;;;5030218;28;20108;-65
2022/03/14 02:39:47;;;;;;;22.67;12.23;;;5.90;42.10;;;;;;5030872;28;20032;-64
2022/03/14 02:42:13;;;;;;;22.25;12.85;;;5.80;42.10;;;;;;5029189;28;20064;-64
2022/03/14 02:44:41;;;;;;;22.85;12.18;;;5.80;42.20;;;;;;5029572;28;20025;-64
2022/03/14 02:47:07;;;;;;;24.80;11.95;;;5.80;42.20;;;;;;5030705;28;20034;-65
2022/03/14 02:49:34;;;;;;;20.83;12.48;;;5.70;42.20;;;;;;5014317;28;20049;-65
2022/03/14 02:52:00;;;;;;;23.10;11.05;;;5.80;42.10;;;;;;5031064;28;20025;-64
2022/03/14 02:54:25;;;;;;;22.73;12.18;;;5.70;42.40;;;;;;5014003;28;20453;-64
2022/03/14 02:56:52;;;;;;;22.98;11.98;;;5.70;42.50;;;;;;5030742;28;20017;-64
2022/03/14 02:59:17;;;;;;;19.70;11.65;;;5.70;42.40;;;;;;5012260;28;20037;-64
2022/03/14 03:01:43;;;;;;;23.60;11.68;;;5.80;42.40;;;;;;5011391;28;20032;-65
2022/03/14 03:04:10;;;;;;;22.83;12.48;;;5.70;42.40;;;;;;5030616;28;20513;-64
2022/03/14 03:06:35;;;;;;;20.83;11.18;;;5.80;42.60;;;;;;5034826;28;20673;-64
2022/03/14 03:09:03;;;;;;;24.75;12.85;;;5.80;42.60;;;;;;5032243;28;20131;-64
2022/03/14 03:11:29;;;;;;;26.60;14.18;;;5.80;42.60;;;;;;5034811;28;20025;-64
2022/03/14 03:13:56;;;;;;;20.17;10.93;;;5.80;42.70;;;;;;5026079;28;20121;-64
2022/03/14 03:16:22;;;;;;;24.88;11.55;;;5.70;42.60;;;;;;5015066;28;20050;-64
2022/03/14 03:18:48;;;;;;;20.30;12.20;;;5.80;42.50;;;;;;5026176;28;20059;-64
2022/03/14 03:21:15;;;;;;;23.67;10.98;;;5.80;42.80;;;;;;5034307;28;20022;-64
2022/03/14 03:23:41;;;;;;;22.33;11.80;;;5.80;42.80;;;;;;5033157;28;20125;-64
2022/03/14 03:26:07;;;;;;;22.35;11.65;;;5.70;42.70;;;;;;5034190;28;20459;-64
2022/03/14 03:28:35;;;;;;;24.88;12.85;;;5.70;42.70;;;;;;5027570;28;20056;-65
2022/03/14 03:31:18;;;;;;;21.48;11.50;;;5.70;42.80;;;;;;5034073;28;20032;-64
2022/03/14 03:33:45;;;;;;;21.73;12.40;;;5.80;42.90;;;;;;5015031;28;20476;-64
2022/03/14 03:36:10;;;;;;;22.55;12.88;;;5.70;42.60;;;;;;5031588;28;20033;-64
2022/03/14 03:38:36;;;;;;;26.00;13.52;;;5.70;42.70;;;;;;5033662;28;20032;-64
2022/03/14 03:41:03;;;;;;;20.80;11.88;;;5.60;42.80;;;;;;5032483;28;20064;-65
2022/03/14 03:43:29;;;;;;;19.90;11.40;;;5.70;42.80;;;;;;5032628;28;20091;-64
2022/03/14 03:45:55;;;;;;;19.30;11.70;;;5.70;42.80;;;;;;5034005;28;20112;-64
2022/03/14 03:48:21;;;;;;;22.90;12.75;;;5.60;42.70;;;;;;5032583;28;20044;-65
2022/03/14 03:50:47;;;;;;;22.02;11.82;;;5.70;42.90;;;;;;5033720;28;20026;-64
2022/03/14 03:53:13;;;;;;;24.92;12.23;;;5.60;42.70;;;;;;5023826;28;20025;-64
2022/03/14 03:55:39;;;;;;;24.80;13.32;;;5.60;42.70;;;;;;5045919;28;20092;-64
2022/03/14 03:58:05;;;;;;;22.95;13.15;;;5.60;42.70;;;;;;5025978;28;20428;-64
2022/03/14 04:00:30;;;;;;;24.25;13.32;;;5.70;42.90;;;;;;5033670;28;20036;-64
2022/03/14 04:02:56;;;;;;;22.63;12.00;;;5.70;42.80;;;;;;5031511;28;20184;-64
2022/03/14 04:05:22;;;;;;;21.95;11.93;;;5.70;42.90;;;;;;5033770;28;20334;-65
2022/03/14 04:07:48;;;;;;;23.23;12.00;;;5.70;42.90;;;;;;5034723;28;20044;-65
2022/03/14 04:10:15;;;;;;;25.55;12.70;;;5.60;42.90;;;;;;5017303;28;20104;-64
2022/03/14 04:12:43;;;;;;;21.27;11.75;;;5.60;42.80;;;;;;5020260;28;20381;-64
2022/03/14 04:15:10;;;;;;;21.83;11.93;;;5.60;42.90;;;;;;5033611;28;20495;-64
2022/03/14 04:17:38;;;;;;;18.02;11.32;;;5.60;42.90;;;;;;5032168;28;20030;-65
2022/03/14 04:20:05;;;;;;;18.80;11.02;;;5.60;42.90;;;;;;5033276;28;20084;-65
2022/03/14 04:22:32;;;;;;;20.67;12.25;;;5.60;42.90;;;;;;5031636;28;20110;-65
2022/03/14 04:24:59;;;;;;;21.83;11.73;;;5.60;42.90;;;;;;5033190;28;20040;-65
2022/03/14 04:27:25;;;;;;;24.25;11.82;;;5.60;42.90;;;;;;5031610;28;20477;-65
2022/03/14 04:29:51;;;;;;;23.52;12.95;;;5.60;43.00;;;;;;5018808;28;20064;-65
2022/03/14 04:32:16;;;;;;;24.25;12.40;;;5.60;43.10;;;;;;5029380;28;20053;-65
2022/03/14 04:34:42;;;;;;;21.92;12.38;;;5.60;43.10;;;;;;5029469;28;20404;-65
2022/03/14 04:37:08;;;;;;;27.85;12.40;;;5.60;43.00;;;;;;5031375;28;20033;-65
2022/03/14 04:39:33;;;;;;;23.58;12.27;;;5.60;43.00;;;;;;5031322;28;20401;-65
2022/03/14 04:41:59;;;;;;;24.90;12.40;;;5.60;43.10;;;;;;5032350;28;20082;-66
2022/03/14 04:44:25;;;;;;;19.08;10.85;;;5.50;43.00;;;;;;5014837;28;20137;-65
2022/03/14 04:46:51;;;;;;;23.63;11.40;;;5.50;43.10;;;;;;5013283;28;20482;-65
2022/03/14 04:49:16;;;;;;;20.98;11.55;;;5.50;43.10;;;;;;5031139;28;20044;-65
2022/03/14 04:51:42;;;;;;;20.70;11.32;;;5.50;43.20;;;;;;5033271;28;20032;-65
2022/03/14 04:54:08;;;;;;;22.95;11.27;;;5.50;43.20;;;;;;5031394;28;20063;-65
2022/03/14 04:56:33;;;;;;;24.35;11.82;;;5.50;43.10;;;;;;5033780;28;20030;-65
2022/03/14 04:58:59;;;;;;;19.52;11.75;;;5.50;43.20;;;;;;5030984;28;20040;-65
2022/03/14 05:01:25;;;;;;;21.67;12.25;;;5.50;43.30;;;;;;5026595;28;20029;-65
2022/03/14 05:03:52;;;;;;;23.92;12.65;;;5.50;43.30;;;;;;5025136;28;20052;-65
2022/03/14 05:06:18;;;;;;;20.30;12.32;;;5.40;43.30;;;;;;5022177;28;20168;-65
2022/03/14 05:08:43;;;;;;;24.85;11.82;;;5.40;43.40;;;;;;5032596;28;20346;-65
2022/03/14 05:11:11;;;;;;;23.23;11.93;;;5.40;43.40;;;;;;5041913;28;20052;-65
2022/03/14 05:13:37;;;;;;;24.77;12.82;;;5.30;43.40;;;;;;5032173;28;20104;-65
2022/03/14 05:16:02;;;;;;;22.75;13.45;;;5.30;43.40;;;;;;5033133;28;20083;-65
2022/03/14 05:18:28;;;;;;;21.25;11.98;;;5.30;43.50;;;;;;5032910;28;20440;-64
2022/03/14 05:20:53;;;;;;;23.92;12.45;;;5.30;43.50;;;;;;5032620;28;20037;-64
2022/03/14 05:23:19;;;;;;;23.77;13.30;;;5.30;43.60;;;;;;5027700;28;20451;-65
2022/03/14 05:25:44;;;;;;;24.52;13.25;;;5.20;43.70;;;;;;5032800;28;20607;-65
2022/03/14 05:28:10;;;;;;;24.95;12.98;;;5.20;43.70;;;;;;5031897;28;20095;-65
2022/03/14 05:30:36;;;;;;;25.35;13.73;;;5.20;43.90;;;;;;5033453;28;20048;-65
2022/03/14 05:33:01;;;;;;;25.95;12.93;;;5.10;43.90;;;;;;5030962;28;20032;-65
2022/03/14 05:35:27;;;;;;;24.95;13.35;;;5.10;44.00;;;;;;5032911;28;20528;-66
2022/03/14 05:37:53;;;;;;;24.40;12.45;;;5.10;44.10;;;;;;5026294;28;20061;-65
2022/03/14 05:40:20;;;;;;;23.42;12.45;;;5.10;44.20;;;;;;5028288;28;20084;-65
2022/03/14 05:42:47;;;;;;;28.15;13.15;;;5.10;44.10;;;;;;5013412;28;20103;-64
2022/03/14 05:45:13;;;;;;;24.20;12.35;;;5.10;44.30;;;;;;5033161;28;20433;-65
2022/03/14 05:47:39;;;;;;;28.83;13.52;;;5.10;44.20;;;;;;5028343;28;20041;-65
2022/03/14 05:50:06;;;;;;;20.75;11.95;;;5.00;44.30;;;;;;5012511;28;20022;-64
2022/03/14 05:52:31;;;;;;;23.42;12.95;;;5.00;44.50;;;;;;5016204;28;20087;-64
2022/03/14 05:54:57;;;;;;;26.63;13.55;;;5.00;45.00;;;;;;5030255;28;20057;-63
2022/03/14 05:57:22;;;;;;;23.23;13.07;;;5.00;44.60;;;;;;5031868;28;20025;-66
2022/03/14 05:59:48;;;;;;;23.23;12.40;;;5.00;44.60;;;;;;5032949;28;20358;-65
2022/03/14 06:02:23;;;;;;;24.98;13.68;;;5.00;44.80;;;;;;5030853;28;20122;-65
2022/03/14 06:04:50;;;;;;;23.25;13.18;;;5.00;44.70;;;;;;5025273;28;20041;-65
2022/03/14 06:07:19;;;;;;;24.42;12.48;;;5.10;44.70;;;;;;5032736;28;20044;-65
2022/03/14 06:09:46;;;;;;;26.20;12.15;;;5.00;44.80;;;;;;5025549;28;20032;-66
2022/03/14 06:12:13;;;;;;;28.38;13.25;;;5.10;44.80;;;;;;5011492;28;20030;-65
2022/03/14 06:14:38;;;;;;;20.83;12.45;;;5.10;45.10;;;;;;5029884;28;20354;-65
2022/03/14 06:17:04;;;;;;;23.52;12.90;;;5.10;45.00;;;;;;5032010;28;20036;-64
2022/03/14 06:19:29;;;;;;;24.35;12.68;;;5.10;45.10;;;;;;5027758;28;20033;-64
2022/03/14 06:21:56;;;;;;;23.38;12.60;;;5.10;45.20;;;;;;5029099;28;20108;-64
2022/03/14 06:24:21;;;;;;;23.05;13.80;;;5.10;45.20;;;;;;5039390;28;20021;-65
2022/03/14 06:26:47;;;;;;;22.48;13.60;;;5.10;45.30;;;;;;5030547;28;20040;-64
2022/03/14 06:29:13;;;;;;;24.92;13.73;;;5.10;45.10;;;;;;5027611;28;20477;-62
2022/03/14 06:31:39;;;;;;;25.45;13.57;;;5.20;45.20;;;;;;5026075;28;20029;-63
2022/03/14 06:34:04;;;;;;;28.13;12.88;;;5.20;45.30;;;;;;5025286;28;20037;-64
2022/03/14 06:36:30;;;;;;;26.00;13.52;;;5.20;45.20;;;;;;5013191;28;20108;-64
2022/03/14 06:38:59;;;;;;;25.55;13.32;;;5.20;45.30;;;;;;5028385;28;20512;-64
2022/03/14 06:41:25;;;;;;;24.15;13.60;;;5.20;45.40;;;;;;5036246;28;20029;-64
2022/03/14 06:43:53;;;;;;;21.80;12.77;;;5.30;45.40;;;;;;5032202;28;20059;-64
2022/03/14 06:46:19;;;;;;;22.98;13.60;;;5.30;45.30;;;;;;5023718;28;20076;-64
2022/03/14 06:48:46;;;;;;;22.90;12.60;;;5.30;45.30;;;;;;5033590;28;20037;-63
2022/03/14 06:51:12;;;;;;;25.38;11.95;;;5.40;45.30;;;;;;5029169;28;20445;-63
2022/03/14 06:53:38;;;;;;;22.45;12.50;;;5.40;45.40;;;;;;5017327;28;20118;-63
2022/03/14 06:56:04;;;;;;;24.40;14.07;;;5.50;45.30;;;;;;5023105;28;20030;-64
2022/03/14 06:58:30;;;;;;;25.00;13.40;;;5.50;45.20;;;;;;5022031;28;20061;-65
2022/03/14 07:00:57;;;;;;;22.98;12.27;;;5.60;45.30;;;;;;5014497;28;20030;-63
2022/03/14 07:03:23;;;;;;;27.48;13.40;;;5.60;45.30;;;;;;5028852;28;20124;-63
2022/03/14 07:05:48;;;;;;;25.23;13.48;;;5.70;45.30;;;;;;5029825;28;20101;-62
2022/03/14 07:08:14;;;;;;;22.90;12.88;;;5.80;46.00;;;;;;5021417;28;20041;-62
2022/03/14 07:10:39;;;;;;;23.05;13.68;;;5.80;45.30;;;;;;5016267;28;20026;-62
2022/03/14 07:13:05;;;;;;;28.10;15.35;;;5.80;45.20;;;;;;5020575;28;20088;-62
2022/03/14 07:15:32;;;;;;;28.60;14.07;;;5.90;45.20;;;;;;5018432;28;20017;-62
2022/03/14 07:17:57;;;;;;;28.42;14.40;;;5.90;45.10;;;;;;5028883;28;20057;-62
2022/03/14 07:20:24;;;;;;;23.45;12.90;;;6.00;45.20;;;;;;5027146;28;20072;-62
2022/03/14 07:22:58;;;;;;;23.38;12.50;;;6.00;45.10;;;;;;5026718;28;20029;-63
2022/03/14 07:25:31;;;;;;;25.40;12.70;;;6.10;44.90;;;;;;5029214;28;20037;-63
2022/03/14 07:28:01;;;;;;;24.08;12.73;;;6.20;44.80;;;;;;5026297;28;20100;-62
2022/03/14 07:30:27;;;;;;;22.02;11.45;;;6.20;44.90;;;;;;5025958;28;20041;-63
2022/03/14 07:32:53;;;;;;;25.02;14.10;;;6.30;44.70;;;;;;5023672;28;20436;-62
2022/03/14 07:35:19;;;;;;;21.92;12.68;;;6.40;44.70;;;;;;5019546;28;20068;-63
2022/03/14 07:37:44;;;;;;;24.48;12.90;;;6.40;44.80;;;;;;5020471;28;20469;-64
2022/03/14 07:40:12;;;;;;;23.60;12.95;;;6.50;44.70;;;;;;5013711;28;20022;-63
2022/03/14 07:42:45;;;;;;;23.45;13.65;;;6.60;44.50;;;;;;5025895;28;20100;-64
2022/03/14 07:45:13;;;;;;;22.20;12.45;;;6.60;44.40;;;;;;5022510;28;20021;-63
2022/03/14 07:47:39;;;;;;;24.17;14.65;;;6.70;44.50;;;;;;5019087;28;20441;-64
2022/03/14 07:50:06;;;;;;;25.20;12.45;;;6.80;44.30;;;;;;5038711;28;20053;-63
2022/03/14 07:52:32;;;;;;;19.83;11.75;;;6.80;44.20;;;;;;5021796;28;20036;-64
2022/03/14 07:54:58;;;;;;;19.00;11.85;;;6.90;44.30;;;;;;5031616;28;20473;-64
2022/03/14 07:57:24;;;;;;;20.20;11.60;;;7.00;44.00;;;;;;5026169;28;20113;-63
2022/03/14 07:59:49;;;;;;;23.95;12.57;;;7.00;44.00;;;;;;5029006;28;20104;-63
2022/03/14 08:02:15;;;;;;;24.42;13.05;;;7.10;44.10;;;;;;5029486;28;20029;-64
2022/03/14 08:04:40;;;;;;;20.60;12.32;;;7.20;44.00;;;;;;5021104;28;20038;-64
2022/03/14 08:07:06;;;;;;;20.20;13.23;;;7.30;44.00;;;;;;5037199;28;20033;-64
2022/03/14 08:09:32;;;;;;;22.45;11.65;;;7.40;43.80;;;;;;5025365;28;20107;-64
2022/03/14 08:12:00;;;;;;;19.48;12.20;;;7.40;43.70;;;;;;5024745;28;20499;-64
2022/03/14 08:14:26;;;;;;;18.65;11.60;;;7.50;43.60;;;;;;5031863;28;20037;-64
2022/03/14 08:16:52;;;;;;;23.15;11.63;;;7.60;43.50;;;;;;5021583;28;20029;-65
2022/03/14 08:19:17;;;;;;;23.63;12.70;;;7.60;43.30;;;;;;5030817;28;20041;-65
2022/03/14 08:21:43;;;;;;;19.77;11.98;;;7.70;43.30;;;;;;5034178;28;20029;-64
2022/03/14 08:24:09;;;;;;;16.98;10.45;;;7.80;43.10;;;;;;5023843;28;20036;-64
2022/03/14 08:26:34;;;;;;;18.30;11.27;;;7.80;43.00;;;;;;5019052;28;20029;-64
2022/03/14 08:29:00;;;;;;;17.35;10.93;;;7.90;42.80;;;;;;5022504;28;20385;-65
2022/03/14 08:31:26;;;;;;;19.50;10.40;;;8.00;43.00;;;;;;5027536;28;20595;-65
2022/03/14 08:33:52;;;;;;;17.52;10.18;;;8.10;43.20;;;;;;5027922;28;20037;-65
2022/03/14 08:36:20;;;;;;;23.92;10.68;;;8.20;43.60;;;;;;5024476;28;20029;-64
2022/03/14 08:38:47;;;;;;;18.40;10.45;;;8.30;43.50;;;;;;5018467;28;20041;-64
2022/03/14 08:41:15;;;;;;;17.15;10.13;;;8.40;43.20;;;;;;5026269;28;20455;-65
2022/03/14 08:43:41;;;;;;;17.13;10.73;;;8.40;43.10;;;;;;5022845;28;20033;-64
2022/03/14 08:46:06;;;;;;;16.90;10.40;;;8.50;43.30;;;;;;5030032;28;20028;-64
2022/03/14 08:48:32;;;;;;;14.93;8.80;;;8.50;43.40;;;;;;5029879;28;20092;-65
2022/03/14 08:50:58;;;;;;;21.45;11.20;;;8.60;42.80;;;;;;5029435;28;20377;-64
2022/03/14 08:53:23;;;;;;;18.25;10.50;;;8.70;42.40;;;;;;5018551;28;20039;-65
2022/03/14 08:55:48;;;;;;;15.48;9.13;;;8.70;42.50;;;;;;5030006;28;20538;-65
2022/03/14 08:58:14;;;;;;;18.00;9.63;;;8.70;42.30;;;;;;5022622;28;20108;-65
2022/03/14 09:00:40;;;;;;;14.15;9.23;;;8.80;41.90;;;;;;5032801;28;20036;-65
2022/03/14 09:03:05;;;;;;;14.82;9.40;;;8.90;41.90;;;;;;5052702;28;20045;-65
2022/03/14 09:05:31;;;;;;;15.70;9.63;;;8.90;41.80;;;;;;5037120;28;20029;-65
2022/03/14 09:07:56;;;;;;;13.65;8.82;;;9.00;41.40;;;;;;5032449;28;20061;-65
2022/03/14 09:10:22;;;;;;;15.88;8.77;;;9.00;41.40;;;;;;5031166;28;20087;-65
2022/03/14 09:12:50;;;;;;;14.32;8.35;;;9.10;41.50;;;;;;5020624;28;20030;-65
2022/03/14 09:15:16;;;;;;;14.65;8.65;;;9.10;41.10;;;;;;5014512;28;20079;-65
2022/03/14 09:17:48;;;;;;;14.90;8.60;;;9.20;41.30;;;;;;5012388;28;20105;-65
2022/03/14 09:20:15;;;;;;;14.77;8.85;;;9.30;41.30;;;;;;5028146;28;20036;-65
2022/03/14 09:22:45;;;;;;;19.52;9.35;;;9.30;41.30;;;;;;5028356;28;20037;-65
2022/03/14 09:25:13;;;;;;;16.67;8.98;;;9.40;41.00;;;;;;5033379;28;20563;-65
2022/03/14 09:27:39;;;;;;;16.20;9.75;;;9.40;41.00;;;;;;5030016;28;20654;-66
2022/03/14 09:30:05;;;;;;;14.13;9.30;;;9.50;40.90;;;;;;5031764;28;20029;-65
2022/03/14 09:32:30;;;;;;;13.93;8.48;;;9.60;40.80;;;;;;5021476;28;20030;-64
2022/03/14 09:34:59;;;;;;;14.23;9.68;;;9.60;40.90;;;;;;5034609;28;20650;-65
2022/03/14 09:37:28;;;;;;;14.38;9.32;;;9.70;40.90;;;;;;5026723;28;20029;-65
2022/03/14 09:39:53;;;;;;;16.88;8.82;;;9.70;40.50;;;;;;5027242;28;20021;-65
2022/03/14 09:42:22;;;;;;;12.55;8.52;;;9.70;40.30;;;;;;5023617;28;20037;-65
2022/03/14 09:44:53;;;;;;;13.35;8.40;;;9.80;40.20;;;;;;5023010;28;20034;-65
2022/03/14 09:47:21;;;;;;;15.07;9.15;;;9.90;40.50;;;;;;5020746;28;20042;-65
2022/03/14 09:49:47;;;;;;;14.70;8.63;;;9.90;40.50;;;;;;5027367;28;20029;-65
2022/03/14 09:52:15;;;;;;;17.65;9.82;;;10.00;40.40;;;;;;5020530;28;20025;-65
2022/03/14 09:54:41;;;;;;;15.13;9.45;;;10.00;40.30;;;;;;5034371;28;20037;-65
2022/03/14 09:57:06;;;;;;;14.65;8.18;;;10.10;40.20;;;;;;5044971;28;20037;-65
2022/03/14 09:59:33;;;;;;;19.50;9.82;;;10.10;39.80;;;;;;5026656;28;20029;-65
2022/03/14 10:02:00;;;;;;;16.35;9.25;;;10.20;40.20;;;;;;5032823;28;20022;-65
2022/03/14 10:04:26;;;;;;;14.20;8.18;;;10.30;40.30;;;;;;5012993;28;20042;-65
2022/03/14 10:06:51;;;;;;;16.42;8.38;;;10.40;40.30;;;;;;5014244;28;20420;-65
2022/03/14 10:09:17;;;;;;;19.63;9.13;;;10.40;40.00;;;;;;5017631;28;20132;-65
2022/03/14 10:11:42;;;;;;;15.77;8.50;;;10.40;39.90;;;;;;5025303;28;20013;-65
2022/03/14 10:14:11;;;;;;;15.75;8.80;;;10.50;39.70;;;;;;5024675;28;20497;-65
2022/03/14 10:16:37;;;;;;;13.38;7.80;;;10.60;39.70;;;;;;5029910;28;20153;-65
2022/03/14 10:19:03;;;;;;;12.60;8.40;;;10.70;39.80;;;;;;5020322;28;20557;-65
2022/03/14 10:21:32;;;;;;;11.23;7.93;;;10.80;39.60;;;;;;5018724;28;20082;-65
2022/03/14 10:24:00;;;;;;;13.70;8.00;;;10.80;39.00;;;;;;5016081;28;20044;-65
2022/03/14 10:26:26;;;;;;;13.32;8.15;;;10.90;39.10;;;;;;5021164;28;20025;-65
2022/03/14 10:28:56;;;;;;;12.23;8.30;;;11.00;39.20;;;;;;5022837;28;20060;-65
2022/03/14 10:31:34;;;;;;;13.30;7.88;;;11.10;39.00;;;;;;5012137;28;20030;-66
2022/03/14 10:34:06;;;;;;;15.07;8.45;;;11.20;39.20;;;;;;5020749;28;20361;-65
2022/03/14 10:36:53;;;;;;;11.77;7.82;;;11.20;39.10;;;;;;5031343;28;20042;-65
2022/03/14 10:39:25;;;;;;;12.60;8.13;;;11.30;39.00;;;;;;5027807;28;20076;-65
2022/03/14 10:42:10;;;;;;;12.23;7.93;;;11.40;39.10;;;;;;5050708;28;20052;-66
2022/03/14 10:44:40;;;;;;;12.82;7.47;;;11.50;38.80;;;;;;5020523;28;20029;-65
2022/03/14 10:47:09;;;;;;;11.07;7.72;;;11.60;38.90;;;;;;5048925;28;20041;-65
2022/03/14 10:49:38;;;;;;;14.82;9.10;;;11.60;39.10;;;;;;5017046;28;20030;-64
2022/03/14 10:52:09;;;;;;;11.68;8.38;;;11.70;38.40;;;;;;5021897;28;20036;-64
2022/03/14 10:54:36;;;;;;;11.95;8.32;;;11.70;38.30;;;;;;5018144;28;20080;-65
2022/03/14 10:57:08;;;;;;;11.95;8.88;;;11.80;38.20;;;;;;5028429;28;20438;-65
2022/03/14 10:59:36;;;;;;;14.13;7.85;;;11.90;38.40;;;;;;5030577;28;20380;-65
2022/03/14 11:02:04;;;;;;;16.42;8.88;;;12.00;38.70;;;;;;5029789;28;20144;-64
2022/03/14 11:04:43;;;;;;;19.90;9.40;;;12.00;38.90;;;;;;5030716;28;20047;-65
2022/03/14 11:07:09;;;;;;;15.70;8.48;;;12.20;39.00;;;;;;5029745;28;20036;-65
2022/03/14 11:09:42;;;;;;;15.35;9.32;;;12.20;38.90;;;;;;5030681;28;20029;-65
2022/03/14 11:12:09;;;;;;;14.02;8.52;;;12.30;38.40;;;;;;5029399;28;20036;-65
2022/03/14 11:14:36;;;;;;;14.88;7.75;;;12.40;38.70;;;;;;5018007;28;20034;-65
2022/03/14 11:17:17;;;;;;;15.20;8.82;;;12.40;38.40;;;;;;5010566;28;20044;-65
2022/03/14 11:19:43;;;;;;;13.07;8.55;;;12.50;38.30;;;;;;5015199;28;20420;-65
2022/03/14 11:22:10;;;;;;;13.27;8.30;;;12.60;38.10;;;;;;5030748;28;20037;-65
2022/03/14 11:24:40;;;;;;;13.75;9.25;;;12.60;38.30;;;;;;5027603;28;20029;-66
2022/03/14 11:27:06;;;;;;;10.90;8.45;;;12.70;38.60;;;;;;5015695;28;20125;-64
2022/03/14 11:29:35;;;;;;;13.50;8.63;;;12.80;38.70;;;;;;5021486;28;20109;-64
2022/03/14 11:32:01;;;;;;;13.02;8.93;;;12.90;38.20;;;;;;5013208;28;20030;-64
2022/03/14 11:34:29;;;;;;;14.63;9.20;;;13.00;37.80;;;;;;5028524;28;20033;-65
2022/03/14 11:36:57;;;;;;;13.05;8.55;;;13.00;37.80;;;;;;5024126;28;20473;-66
2022/03/14 11:39:22;;;;;;;13.57;7.72;;;13.10;37.60;;;;;;5027512;28;20136;-66
2022/03/14 11:41:49;;;;;;;12.40;7.50;;;13.10;37.60;;;;;;5014645;28;20124;-64
2022/03/14 11:44:15;;;;;;;11.25;7.30;;;13.10;37.80;;;;;;5024271;28;20129;-66
2022/03/14 11:46:41;;;;;;;14.85;8.25;;;13.20;37.90;;;;;;5048772;28;20036;-64
2022/03/14 11:49:28;;;;;;;12.93;8.48;;;13.30;38.00;;;;;;5040969;28;20078;-65
2022/03/14 11:52:15;;;;;;;11.05;7.97;;;13.30;37.60;;;;;;5054078;28;20155;-66
2022/03/14 11:54:49;;;;;;;15.07;8.70;;;13.50;37.50;;;;;;5033226;28;20061;-65
2022/03/14 11:57:36;;;;;;;12.93;8.25;;;13.60;37.10;;;;;;5031738;28;20068;-65
2022/03/14 12:00:21;;;;;;;12.02;8.00;;;13.70;37.50;;;;;;5033733;28;20308;-65
2022/03/14 12:02:47;;;;;;;11.68;7.47;;;13.90;37.60;;;;;;5028976;28;20137;-65
2022/03/14 12:05:13;;;;;;;14.07;8.23;;;14.00;37.70;;;;;;5025424;28;20068;-65
2022/03/14 12:07:38;;;;;;;10.20;8.05;;;14.10;37.40;;;;;;5040753;28;20032;-65
2022/03/14 12:10:33;;;;;;;12.50;8.77;;;14.20;37.10;;;;;;5053517;28;20028;-65
2022/03/14 12:12:59;;;;;;;13.02;8.45;;;14.30;37.10;;;;;;5030402;28;20037;-65
2022/03/14 12:15:44;;;;;;;11.35;7.57;;;14.40;37.00;;;;;;5033524;28;20049;-66
2022/03/14 12:18:26;;;;;;;11.73;8.05;;;14.50;37.10;;;;;;5036181;28;20032;-65
2022/03/14 12:20:53;;;;;;;15.27;9.07;;;14.60;37.20;;;;;;5041311;28;20175;-65
2022/03/14 12:23:24;;;;;;;11.90;8.60;;;14.60;37.10;;;;;;5036747;28;20069;-65
2022/03/14 12:25:49;;;;;;;12.98;8.73;;;14.70;37.20;;;;;;5018044;28;20104;-66
2022/03/14 12:28:35;;;;;;;11.45;7.70;;;14.80;37.10;;;;;;5044997;28;20223;-64
2022/03/14 12:31:03;;;;;;;16.45;9.68;;;14.80;37.00;;;;;;5031851;28;20471;-64
2022/03/14 12:33:34;;;;;;;12.50;8.55;;;14.80;37.40;;;;;;5032160;28;20029;-65
2022/03/14 12:36:22;;;;;;;14.60;9.13;;;14.90;37.20;;;;;;5025622;28;20025;-66
2022/03/14 12:39:06;;;;;;;13.38;8.93;;;15.00;37.20;;;;;;5037609;28;20025;-64